createdAt,value
2023-03-11T00:01:49.925Z,215132.00
2023-03-11T00:07:52.590Z,215154.00
2023-03-11T00:13:54.938Z,215182.00
2023-03-11T00:19:57.278Z,215261.00
2023-03-11T00:26:01.685Z,215337.00
2023-03-11T00:32:04.223Z,215419.00
2023-03-11T00:38:08.165Z,215510.00
2023-03-11T00:44:12.854Z,215596.00
2023-03-11T00:50:21.369Z,215628.00
2023-03-11T00:56:23.709Z,215700.00
2023-03-11T01:02:26.080Z,215728.00
2023-03-11T01:08:29.964Z,215700.00
2023-03-11T01:14:32.239Z,215734.00
2023-03-11T01:20:36.123Z,215777.00
2023-03-11T01:26:38.482Z,215811.00
2023-03-11T01:32:40.796Z,215847.00
2023-03-11T01:38:43.336Z,215874.00
2023-03-11T01:44:45.806Z,215902.00
2023-03-11T01:50:51.208Z,215945.00
2023-03-11T01:56:56.056Z,215951.00
2023-03-11T02:03:02.564Z,215951.00
2023-03-11T02:09:04.910Z,215943.00
2023-03-11T02:15:09.018Z,215902.00
2023-03-11T02:21:29.263Z,215880.00
2023-03-11T02:27:39.964Z,215866.00
2023-03-11T02:33:45.734Z,215866.00
2023-03-11T02:39:51.179Z,215909.00
2023-03-11T02:45:54.457Z,215945.00
2023-03-11T02:51:56.863Z,215902.00
2023-03-11T02:57:59.180Z,215811.00
2023-03-11T03:04:01.929Z,215742.00
2023-03-11T03:10:08.078Z,215678.00
2023-03-11T03:16:11.349Z,215700.00
2023-03-11T03:22:13.912Z,215700.00
2023-03-11T03:28:17.291Z,215720.00
2023-03-11T03:34:21.385Z,215750.00
2023-03-11T03:40:23.963Z,215756.00
2023-03-11T03:46:28.813Z,215734.00
2023-03-11T03:52:33.617Z,215684.00
2023-03-11T03:58:36.872Z,215670.00
2023-03-11T04:04:39.478Z,215678.00
2023-03-11T04:10:42.063Z,215656.00
2023-03-11T04:16:44.529Z,215642.00
2023-03-11T04:22:49.081Z,215628.00
2023-03-11T04:28:53.876Z,215678.00
2023-03-11T04:34:57.399Z,215700.00
2023-03-11T04:41:04.207Z,215734.00
2023-03-11T04:47:06.921Z,215734.00
2023-03-11T04:53:10.100Z,215714.00
2023-03-11T04:59:12.986Z,215700.00
2023-03-11T05:05:17.197Z,215656.00
2023-03-11T05:11:19.457Z,215642.00
2023-03-11T05:17:23.295Z,215642.00
2023-03-11T05:23:28.849Z,215615.00
2023-03-11T05:29:31.979Z,215560.00
2023-03-11T05:35:35.005Z,215546.00
2023-03-11T05:41:37.533Z,215532.00
2023-03-11T05:47:42.474Z,215489.00
2023-03-11T05:53:48.900Z,215538.00
2023-03-11T05:59:56.761Z,215560.00
2023-03-11T06:05:59.716Z,215678.00
2023-03-11T06:12:02.347Z,215656.00
2023-03-11T06:18:14.602Z,215728.00
2023-03-11T06:24:17.313Z,215789.00
2023-03-11T06:30:20.159Z,215929.00
2023-03-11T06:36:31.172Z,216246.00
2023-03-11T06:42:34.997Z,216593.00
2023-03-11T06:48:38.284Z,216874.00
2023-03-11T06:54:40.748Z,216774.00
2023-03-11T07:00:44.062Z,216972.00
2023-03-11T07:06:46.662Z,217093.00
2023-03-11T07:12:55.421Z,217044.00
2023-03-11T07:19:03.723Z,216942.00
2023-03-11T07:25:06.619Z,216942.00
2023-03-11T07:31:09.933Z,216928.00
2023-03-11T07:37:12.376Z,216978.00
2023-03-11T07:43:15.143Z,216840.00
2023-03-11T07:49:17.430Z,216607.00
2023-03-11T07:55:19.544Z,216647.00
2023-03-11T08:01:24.686Z,216882.00
2023-03-11T08:07:27.381Z,216846.00
2023-03-11T08:13:29.730Z,216816.00
2023-03-11T08:19:32.116Z,216788.00
2023-03-11T08:25:34.544Z,216675.00
2023-03-11T08:31:37.184Z,216711.00
2023-03-11T08:37:39.572Z,216472.00
2023-03-11T08:43:42.609Z,216485.00
2023-03-11T08:49:45.081Z,216386.00
2023-03-11T08:55:47.437Z,216442.00
2023-03-11T09:01:49.921Z,216810.00
2023-03-11T09:07:52.309Z,216916.00
2023-03-11T09:13:54.833Z,217050.00
2023-03-11T09:19:57.705Z,217271.00
2023-03-11T09:25:59.937Z,218023.00
2023-03-11T09:32:02.209Z,218660.00
2023-03-11T09:38:04.303Z,219687.00
2023-03-11T09:44:16.639Z,219261.00
2023-03-11T09:50:31.002Z,218996.00
2023-03-11T09:56:36.423Z,218515.00
2023-03-11T10:02:39.015Z,217951.00
2023-03-11T10:08:55.226Z,217903.00
2023-03-11T10:15:06.850Z,217853.00
2023-03-11T10:21:40.298Z,218009.00
2023-03-11T10:27:45.347Z,217825.00
2023-03-11T10:34:16.571Z,217610.00
2023-03-11T10:40:27.362Z,217447.00
2023-03-11T10:46:29.753Z,217305.00
2023-03-11T10:52:31.920Z,217376.00
2023-03-11T10:58:34.647Z,217461.00
2023-03-11T11:04:41.708Z,217708.00
2023-03-11T11:10:52.687Z,217937.00
2023-03-11T11:16:55.306Z,218646.00
2023-03-11T11:22:58.775Z,220702.00
2023-03-11T11:29:10.393Z,221609.00
2023-03-11T11:35:15.775Z,219564.00
2023-03-11T11:41:20.873Z,221706.00
2023-03-11T11:47:30.633Z,219877.00
2023-03-11T11:53:50.457Z,219191.00
2023-03-11T11:59:52.876Z,218601.00
2023-03-11T12:05:58.589Z,218387.00
2023-03-11T12:12:17.788Z,218466.00
2023-03-11T12:18:28.503Z,218581.00
2023-03-11T12:24:37.999Z,218579.00
2023-03-11T12:30:48.758Z,218882.00
2023-03-11T12:36:52.993Z,218980.00
2023-03-11T12:42:55.381Z,218947.00
2023-03-11T12:49:12.759Z,219010.00
2023-03-11T12:55:17.642Z,218794.00
2023-03-11T13:01:46.248Z,218751.00
2023-03-11T13:07:57.468Z,218330.00
2023-03-11T13:14:16.772Z,218296.00
2023-03-11T13:20:42.077Z,218486.00
2023-03-11T13:27:04.969Z,220316.00
2023-03-11T13:33:22.383Z,219261.00
2023-03-11T13:39:55.419Z,220550.00
2023-03-11T13:46:29.063Z,219703.00
2023-03-11T13:52:33.162Z,219652.00
2023-03-11T13:58:35.109Z,219550.00
2023-03-11T14:04:40.154Z,219163.00
2023-03-11T14:10:52.473Z,219444.00
2023-03-11T14:16:55.367Z,219233.00
2023-03-11T14:22:58.211Z,219169.00
2023-03-11T14:29:07.441Z,219010.00
2023-03-11T14:35:21.048Z,218773.00
2023-03-11T14:41:23.676Z,218704.00
2023-03-11T14:47:46.168Z,218660.00
2023-03-11T14:54:14.718Z,218631.00
2023-03-11T15:00:25.380Z,218609.00
2023-03-11T15:06:30.119Z,218579.00
2023-03-11T15:12:35.242Z,218472.00
2023-03-11T15:18:38.598Z,218345.00
2023-03-11T15:24:41.131Z,218264.00
2023-03-11T15:30:43.402Z,218214.00
2023-03-11T15:36:57.127Z,218152.00
2023-03-11T15:43:31.183Z,218066.00
2023-03-11T15:49:34.126Z,217845.00
2023-03-11T15:55:37.543Z,217538.00
2023-03-11T16:01:39.915Z,217376.00
2023-03-11T16:07:42.297Z,217221.00
2023-03-11T16:13:44.586Z,217065.00
2023-03-11T16:19:49.529Z,217030.00
2023-03-11T16:25:56.107Z,216942.00
2023-03-11T16:31:58.207Z,216860.00
2023-03-11T16:38:00.816Z,216705.00
2023-03-11T16:44:03.076Z,216593.00
2023-03-11T16:50:06.050Z,216501.00
2023-03-11T16:56:08.556Z,216436.00
2023-03-11T17:02:12.343Z,216543.00
2023-03-11T17:08:16.572Z,216725.00
2023-03-11T17:14:18.830Z,216846.00
2023-03-11T17:20:21.834Z,216824.00
2023-03-11T17:26:25.432Z,216753.00
2023-03-11T17:32:28.408Z,216661.00
2023-03-11T17:38:31.114Z,216563.00
2023-03-11T17:44:50.286Z,216529.00
2023-03-11T17:50:53.606Z,216430.00
2023-03-11T17:56:56.068Z,216345.00
2023-03-11T18:02:58.547Z,216210.00
2023-03-11T18:09:01.091Z,216064.00
2023-03-11T18:15:06.473Z,215945.00
2023-03-11T18:21:14.519Z,215791.00
2023-03-11T18:27:16.977Z,215656.00
2023-03-11T18:33:19.299Z,215568.00
2023-03-11T18:39:21.721Z,215510.00
2023-03-11T18:45:23.827Z,215383.00
2023-03-11T18:51:27.629Z,215289.00
2023-03-11T18:57:30.055Z,215253.00
2023-03-11T19:03:32.364Z,215204.00
2023-03-11T19:09:34.864Z,215154.00
2023-03-11T19:15:43.407Z,215112.00
2023-03-11T19:21:47.909Z,215066.00
2023-03-11T19:27:50.076Z,215010.00
2023-03-11T19:33:52.584Z,214940.00
2023-03-11T19:39:54.677Z,214877.00
2023-03-11T19:45:57.327Z,214793.00
2023-03-11T19:51:59.708Z,214753.00
2023-03-11T19:58:01.842Z,214667.00
2023-03-11T20:04:05.904Z,214598.00
2023-03-11T20:10:08.997Z,214488.00
2023-03-11T20:16:17.363Z,214418.00
2023-03-11T20:22:20.810Z,214363.00
2023-03-11T20:28:26.099Z,214296.00
2023-03-11T20:34:29.621Z,214099.00
2023-03-11T20:40:31.864Z,213830.00
2023-03-11T20:46:34.250Z,213673.00
2023-03-11T20:52:36.618Z,213523.00
2023-03-11T20:58:39.066Z,213439.00
2023-03-11T21:04:43.177Z,213300.00
2023-03-11T21:10:45.347Z,213158.00
2023-03-11T21:16:47.768Z,213047.00
2023-03-11T21:22:50.291Z,212945.00
2023-03-11T21:28:52.995Z,212891.00
2023-03-11T21:34:57.603Z,212836.00
2023-03-11T21:41:17.591Z,212766.00
2023-03-11T21:47:20.357Z,212714.00
2023-03-11T21:53:22.518Z,212666.00
2023-03-11T21:59:25.667Z,212632.00
2023-03-11T22:05:28.282Z,212604.00
2023-03-11T22:11:30.981Z,212549.00
2023-03-11T22:17:33.386Z,212588.00
2023-03-11T22:23:36.021Z,212549.00
2023-03-11T22:29:39.493Z,212447.00
2023-03-11T22:35:41.929Z,212399.00
2023-03-11T22:41:44.245Z,212317.00
2023-03-11T22:47:46.685Z,212268.00
2023-03-11T22:53:49.460Z,212215.00
2023-03-11T22:59:51.692Z,212182.00
2023-03-11T23:05:54.121Z,212168.00
2023-03-11T23:11:56.637Z,212160.00
2023-03-11T23:17:58.759Z,212106.00
2023-03-11T23:24:02.120Z,212120.00
2023-03-11T23:30:05.345Z,212120.00
2023-03-11T23:36:11.151Z,212092.00
2023-03-11T23:42:24.894Z,212031.00
2023-03-11T23:48:27.881Z,211989.00
2023-03-11T23:54:29.989Z,216007.00
